createdAt,value
2019-03-30T00:02:07.124Z,48.10
2019-03-30T00:04:37.977Z,51.92
2019-03-30T00:07:08.906Z,54.13
2019-03-30T00:09:39.855Z,55.30
2019-03-30T00:12:10.783Z,55.75
2019-03-30T00:14:41.668Z,52.93
2019-03-30T00:17:12.557Z,36.70
2019-03-30T00:19:43.395Z,50.05
2019-03-30T00:22:14.289Z,44.45
2019-03-30T00:24:45.159Z,64.32
2019-03-30T00:27:16.065Z,55.10
2019-03-30T00:29:47.200Z,59.00
2019-03-30T00:32:18.119Z,68.75
2019-03-30T00:34:49.006Z,63.35
2019-03-30T00:37:19.908Z,61.35
2019-03-30T00:39:50.752Z,56.00
2019-03-30T00:42:21.647Z,59.67
2019-03-30T00:44:52.504Z,65.60
2019-03-30T00:47:23.410Z,54.63
2019-03-30T00:49:54.387Z,56.23
2019-03-30T00:52:25.271Z,66.10
2019-03-30T00:54:57.399Z,51.35
2019-03-30T00:57:28.334Z,43.90
2019-03-30T00:59:59.179Z,49.93
2019-03-30T01:02:30.108Z,59.45
2019-03-30T01:05:01.053Z,51.90
2019-03-30T01:07:31.989Z,60.60
2019-03-30T01:10:02.840Z,50.30
2019-03-30T01:12:33.904Z,44.88
2019-03-30T01:15:05.399Z,54.83
2019-03-30T01:17:36.339Z,39.23
2019-03-30T01:20:08.334Z,56.37
2019-03-30T01:22:39.228Z,44.00
2019-03-30T01:25:10.345Z,51.40
2019-03-30T01:27:41.249Z,55.73
2019-03-30T01:30:22.483Z,51.70
2019-03-30T01:32:47.250Z,45.98
2019-03-30T01:35:18.138Z,49.03
2019-03-30T01:37:49.081Z,52.55
2019-03-30T01:40:19.941Z,42.90
2019-03-30T01:42:50.829Z,44.40
2019-03-30T01:45:21.650Z,50.35
2019-03-30T01:47:52.565Z,48.87
2019-03-30T01:50:23.589Z,45.43
2019-03-30T01:52:55.275Z,54.70
2019-03-30T01:55:26.130Z,50.63
2019-03-30T01:57:57.087Z,60.50
2019-03-30T02:00:27.942Z,58.83
2019-03-30T02:02:58.819Z,52.53
2019-03-30T02:05:29.715Z,56.18
2019-03-30T02:08:00.557Z,61.98
2019-03-30T02:10:45.185Z,68.20
2019-03-30T02:13:16.141Z,50.45
2019-03-30T02:15:47.087Z,53.83
2019-03-30T02:18:18.064Z,34.78
2019-03-30T02:20:49.034Z,58.15
2019-03-30T02:23:20.234Z,42.25
2019-03-30T02:25:52.058Z,46.55
2019-03-30T02:28:22.939Z,52.45
2019-03-30T02:30:53.781Z,45.67
2019-03-30T02:33:24.713Z,56.50
2019-03-30T02:35:55.569Z,59.38
2019-03-30T02:38:26.479Z,52.78
2019-03-30T02:40:57.357Z,61.70
2019-03-30T02:43:28.208Z,56.08
2019-03-30T02:45:59.058Z,61.48
2019-03-30T02:48:29.930Z,65.03
2019-03-30T02:51:00.786Z,71.62
2019-03-30T02:53:31.675Z,65.95
2019-03-30T02:56:02.640Z,66.42
2019-03-30T02:58:33.556Z,69.97
2019-03-30T03:01:04.378Z,55.70
2019-03-30T03:03:35.228Z,70.45
2019-03-30T03:06:07.062Z,67.92
2019-03-30T03:08:37.945Z,67.40
2019-03-30T03:11:08.788Z,54.13
2019-03-30T03:13:39.661Z,57.05
2019-03-30T03:16:10.498Z,47.70
2019-03-30T03:18:41.362Z,65.25
2019-03-30T03:21:12.232Z,50.20
2019-03-30T03:23:43.173Z,50.28
2019-03-30T03:26:14.036Z,52.05
2019-03-30T03:28:44.926Z,48.35
2019-03-30T03:31:15.770Z,51.58
2019-03-30T03:33:46.644Z,47.27
2019-03-30T03:36:17.481Z,47.23
2019-03-30T03:38:48.377Z,56.18
2019-03-30T03:41:19.211Z,60.40
2019-03-30T03:43:50.130Z,49.75
2019-03-30T03:46:20.951Z,59.63
2019-03-30T03:48:51.797Z,51.00
2019-03-30T03:51:26.147Z,56.40
2019-03-30T03:53:56.347Z,50.50
2019-03-30T03:56:28.676Z,52.00
2019-03-30T03:59:02.060Z,56.20
2019-03-30T04:01:35.456Z,56.20
2019-03-30T04:04:08.604Z,43.75
2019-03-30T04:06:41.355Z,43.55
2019-03-30T04:09:13.729Z,49.13
2019-03-30T04:11:46.332Z,45.23
2019-03-30T04:14:20.913Z,50.25
2019-03-30T04:16:51.753Z,56.35
2019-03-30T04:19:22.719Z,49.53
2019-03-30T04:21:53.547Z,63.73
2019-03-30T04:24:25.434Z,65.90
2019-03-30T04:26:56.255Z,64.20
2019-03-30T04:29:27.142Z,55.15
2019-03-30T04:31:58.006Z,47.40
2019-03-30T04:34:28.908Z,57.93
2019-03-30T04:36:59.728Z,46.53
2019-03-30T04:39:30.596Z,55.60
2019-03-30T04:42:01.425Z,55.95
2019-03-30T04:44:32.361Z,59.48
2019-03-30T04:47:03.177Z,74.03
2019-03-30T04:49:34.058Z,55.40
2019-03-30T04:52:04.871Z,53.52
2019-03-30T04:54:35.753Z,57.70
2019-03-30T04:57:06.597Z,46.58
2019-03-30T04:59:37.529Z,59.45
2019-03-30T05:02:08.387Z,47.43
2019-03-30T05:04:39.279Z,61.33
2019-03-30T05:07:10.131Z,65.25
2019-03-30T05:09:40.995Z,59.67
2019-03-30T05:12:11.836Z,60.10
2019-03-30T05:14:42.757Z,50.92
2019-03-30T05:17:14.569Z,53.85
2019-03-30T05:19:45.521Z,49.33
2019-03-30T05:22:16.696Z,52.15
2019-03-30T05:24:47.787Z,50.45
2019-03-30T05:27:18.636Z,56.40
2019-03-30T05:29:49.543Z,63.40
2019-03-30T05:32:20.393Z,52.48
2019-03-30T05:34:51.317Z,60.33
2019-03-30T05:37:22.143Z,58.28
2019-03-30T05:39:53.056Z,71.20
2019-03-30T05:42:23.911Z,67.40
2019-03-30T05:44:57.632Z,56.95
2019-03-30T05:47:27.282Z,77.17
2019-03-30T05:49:58.194Z,78.28
2019-03-30T05:52:29.053Z,59.48
2019-03-30T05:54:59.915Z,46.42
2019-03-30T05:57:30.795Z,76.28
2019-03-30T06:00:01.716Z,63.35
2019-03-30T06:02:33.748Z,65.85
2019-03-30T06:05:05.173Z,57.10
2019-03-30T06:07:36.009Z,65.70
2019-03-30T06:10:07.413Z,83.42
2019-03-30T06:12:38.288Z,68.95
2019-03-30T06:15:09.218Z,72.47
2019-03-30T06:17:40.999Z,67.92
2019-03-30T06:20:11.875Z,75.42
2019-03-30T06:22:42.751Z,89.30
2019-03-30T06:25:13.637Z,82.97
2019-03-30T06:27:44.528Z,62.45
2019-03-30T06:30:20.805Z,68.12
2019-03-30T06:32:51.713Z,63.92
2019-03-30T06:35:22.706Z,74.75
2019-03-30T06:37:53.575Z,67.70
2019-03-30T06:40:24.506Z,81.67
2019-03-30T06:42:55.379Z,88.80
2019-03-30T06:45:26.417Z,83.07
2019-03-30T06:47:57.229Z,69.67
2019-03-30T06:50:28.130Z,75.35
2019-03-30T06:52:59.103Z,59.25
2019-03-30T06:55:30.043Z,78.17
2019-03-30T06:58:00.957Z,69.95
2019-03-30T07:00:35.756Z,65.90
2019-03-30T07:03:07.559Z,72.08
2019-03-30T07:05:43.004Z,75.55
2019-03-30T07:08:15.896Z,78.90
2019-03-30T07:10:47.573Z,75.47
2019-03-30T07:13:18.515Z,72.90
2019-03-30T07:15:52.384Z,68.35
2019-03-30T07:18:23.255Z,67.65
2019-03-30T07:20:54.379Z,60.65
2019-03-30T07:23:25.232Z,64.53
2019-03-30T07:25:56.079Z,72.17
2019-03-30T07:28:26.992Z,67.90
2019-03-30T07:30:57.959Z,60.78
2019-03-30T07:33:29.815Z,61.95
2019-03-30T07:36:00.716Z,64.58
2019-03-30T07:38:31.688Z,58.42
2019-03-30T07:41:02.560Z,71.42
2019-03-30T07:43:33.434Z,55.48
2019-03-30T07:46:04.341Z,54.20
2019-03-30T07:48:35.217Z,65.42
2019-03-30T07:51:06.139Z,52.38
2019-03-30T07:53:44.501Z,52.33
2019-03-30T07:56:09.634Z,46.23
2019-03-30T07:58:40.738Z,39.03
2019-03-30T08:01:11.659Z,39.67
2019-03-30T08:03:42.513Z,34.48
2019-03-30T08:06:13.443Z,26.57
2019-03-30T08:08:44.326Z,23.95
2019-03-30T08:11:22.962Z,24.92
2019-03-30T08:13:53.841Z,19.77
2019-03-30T08:16:26.205Z,18.17
2019-03-30T08:18:58.807Z,19.05
2019-03-30T08:21:29.753Z,16.93
2019-03-30T08:24:00.659Z,16.90
2019-03-30T08:26:31.576Z,15.95
2019-03-30T08:29:02.473Z,12.75
2019-03-30T08:31:33.361Z,13.25
2019-03-30T08:34:04.217Z,14.93
2019-03-30T08:36:35.119Z,16.45
2019-03-30T08:39:07.693Z,15.63
2019-03-30T08:41:38.581Z,14.30
2019-03-30T08:44:09.434Z,16.02
2019-03-30T08:46:40.370Z,16.37
2019-03-30T08:49:11.246Z,25.37
2019-03-30T08:51:42.133Z,15.20
2019-03-30T08:54:12.973Z,16.75
2019-03-30T08:56:43.909Z,15.68
2019-03-30T08:59:14.899Z,16.80
2019-03-30T09:01:45.837Z,12.88
2019-03-30T09:04:16.805Z,13.30
2019-03-30T09:06:47.798Z,14.25
2019-03-30T09:09:18.710Z,13.55
2019-03-30T09:11:49.671Z,14.90
2019-03-30T09:14:20.527Z,10.13
2019-03-30T09:16:51.494Z,11.25
2019-03-30T09:19:22.358Z,10.70
2019-03-30T09:21:53.275Z,9.13
2019-03-30T09:24:24.135Z,8.93
2019-03-30T09:26:55.037Z,9.80
2019-03-30T09:29:25.935Z,11.18
2019-03-30T09:31:56.859Z,9.30
2019-03-30T09:34:27.718Z,6.95
2019-03-30T09:36:58.594Z,10.65
2019-03-30T09:39:29.465Z,8.75
2019-03-30T09:42:00.388Z,9.65
2019-03-30T09:44:31.270Z,7.55
2019-03-30T09:47:02.153Z,8.43
2019-03-30T09:49:33.094Z,8.45
2019-03-30T09:52:04.063Z,10.18
2019-03-30T09:54:34.903Z,12.28
2019-03-30T09:57:05.844Z,9.80
2019-03-30T09:59:36.761Z,10.75
2019-03-30T10:02:07.687Z,9.25
2019-03-30T10:04:38.692Z,11.35
2019-03-30T10:07:09.622Z,11.12
2019-03-30T10:09:40.475Z,11.20
2019-03-30T10:12:13.915Z,10.28
2019-03-30T10:14:44.765Z,9.93
2019-03-30T10:17:15.766Z,13.15
2019-03-30T10:19:53.130Z,24.80
2019-03-30T10:22:19.186Z,14.18
2019-03-30T10:24:50.043Z,13.20
2019-03-30T10:27:20.929Z,8.90
2019-03-30T10:29:51.803Z,10.55
2019-03-30T10:32:23.783Z,9.78
2019-03-30T10:34:54.702Z,11.38
2019-03-30T10:37:25.608Z,12.23
2019-03-30T10:39:56.509Z,12.13
2019-03-30T10:42:27.423Z,11.43
2019-03-30T10:44:58.302Z,10.10
2019-03-30T10:47:29.234Z,12.82
2019-03-30T10:50:00.115Z,9.60
2019-03-30T10:52:31.157Z,10.55
2019-03-30T10:55:02.009Z,9.70
2019-03-30T10:57:32.907Z,10.90
2019-03-30T11:00:03.907Z,9.60
2019-03-30T11:02:35.757Z,11.03
2019-03-30T11:05:06.967Z,9.03
2019-03-30T11:07:37.903Z,10.80
2019-03-30T11:10:09.133Z,9.88
2019-03-30T11:12:40.053Z,10.20
2019-03-30T11:15:11.002Z,11.18
2019-03-30T11:17:41.932Z,9.48
2019-03-30T11:20:12.905Z,8.38
2019-03-30T11:22:43.788Z,10.78
2019-03-30T11:25:15.615Z,10.38
2019-03-30T11:27:46.525Z,9.75
2019-03-30T11:30:17.385Z,9.93
2019-03-30T11:32:48.333Z,7.83
2019-03-30T11:35:19.239Z,8.30
2019-03-30T11:37:50.252Z,10.25
2019-03-30T11:40:21.161Z,8.43
2019-03-30T11:42:52.124Z,8.85
2019-03-30T11:45:22.989Z,12.47
2019-03-30T11:47:53.898Z,10.45
2019-03-30T11:50:24.759Z,11.20
2019-03-30T11:52:55.693Z,10.93
2019-03-30T11:55:26.543Z,10.53
2019-03-30T11:57:57.421Z,9.50
2019-03-30T12:00:28.325Z,9.75
2019-03-30T12:02:59.255Z,10.40
2019-03-30T12:05:30.109Z,9.40
2019-03-30T12:08:00.993Z,8.28
2019-03-30T12:10:31.827Z,7.95
2019-03-30T12:13:02.715Z,7.58
2019-03-30T12:15:33.803Z,8.08
2019-03-30T12:18:04.727Z,10.72
2019-03-30T12:20:35.569Z,9.28
2019-03-30T12:23:06.444Z,8.45
2019-03-30T12:25:37.325Z,8.98
2019-03-30T12:28:08.188Z,9.90
2019-03-30T12:30:39.062Z,7.75
2019-03-30T12:33:09.922Z,7.42
2019-03-30T12:35:40.783Z,9.68
2019-03-30T12:38:11.690Z,8.85
2019-03-30T12:40:42.553Z,9.63
2019-03-30T12:43:13.485Z,7.85
2019-03-30T12:45:44.357Z,11.10
2019-03-30T12:48:15.305Z,8.05
2019-03-30T12:50:46.149Z,10.23
2019-03-30T12:53:17.038Z,8.78
2019-03-30T12:58:20.427Z,11.65
2019-03-30T13:00:51.488Z,8.30
2019-03-30T13:03:22.327Z,8.60
2019-03-30T13:05:53.229Z,7.35
2019-03-30T13:08:24.098Z,11.15
2019-03-30T13:10:54.951Z,8.00
2019-03-30T13:13:25.838Z,9.80
2019-03-30T13:15:56.735Z,9.63
2019-03-30T13:18:27.559Z,9.28
2019-03-30T13:20:58.439Z,9.18
2019-03-30T13:23:29.296Z,12.10
2019-03-30T13:26:03.932Z,10.43
2019-03-30T13:28:32.682Z,13.88
2019-03-30T13:31:03.581Z,10.50
2019-03-30T13:33:34.481Z,11.50
2019-03-30T13:36:05.652Z,10.82
2019-03-30T13:38:36.532Z,10.93
2019-03-30T13:41:07.447Z,10.45
2019-03-30T13:43:38.318Z,11.55
2019-03-30T13:46:09.246Z,10.63
2019-03-30T13:48:40.104Z,10.20
2019-03-30T13:51:10.976Z,10.78
2019-03-30T13:53:41.796Z,12.33
2019-03-30T13:56:17.528Z,11.45
2019-03-30T13:58:46.145Z,12.37
2019-03-30T14:01:17.044Z,13.38
2019-03-30T14:03:47.900Z,13.03
2019-03-30T14:06:18.772Z,11.03
2019-03-30T14:08:49.625Z,12.58
2019-03-30T14:11:20.524Z,11.60
2019-03-30T14:13:51.387Z,11.10
2019-03-30T14:16:23.274Z,13.00
2019-03-30T14:18:54.173Z,11.00
2019-03-30T14:21:25.068Z,13.28
2019-03-30T14:23:55.924Z,13.40
2019-03-30T14:26:31.507Z,14.87
2019-03-30T14:28:59.409Z,14.10
2019-03-30T14:31:30.325Z,14.80
2019-03-30T14:34:01.139Z,13.22
2019-03-30T14:36:32.031Z,11.18
2019-03-30T14:39:03.998Z,12.05
2019-03-30T14:41:34.966Z,13.98
2019-03-30T14:44:05.798Z,9.58
2019-03-30T14:46:36.686Z,10.45
2019-03-30T14:49:07.571Z,13.05
2019-03-30T14:51:39.480Z,14.13
2019-03-30T14:54:10.326Z,12.58
2019-03-30T14:56:45.906Z,11.03
2019-03-30T14:59:14.590Z,12.18
2019-03-30T15:01:45.515Z,12.60
2019-03-30T15:04:16.430Z,10.63
2019-03-30T15:06:47.280Z,11.80
2019-03-30T15:09:18.164Z,12.20
2019-03-30T15:11:49.066Z,10.60
2019-03-30T15:14:19.950Z,10.90
2019-03-30T15:16:50.886Z,12.43
2019-03-30T15:19:21.810Z,13.00
2019-03-30T15:21:52.716Z,12.63
2019-03-30T15:24:23.610Z,12.35
2019-03-30T15:27:00.381Z,13.18
2019-03-30T15:29:27.165Z,11.93
2019-03-30T15:31:58.094Z,10.78
2019-03-30T15:34:28.974Z,12.85
2019-03-30T15:36:59.874Z,12.63
2019-03-30T15:39:30.759Z,12.63
2019-03-30T15:42:01.754Z,12.70
2019-03-30T15:44:32.672Z,12.45
2019-03-30T15:47:03.590Z,12.60
2019-03-30T15:49:34.476Z,10.32
2019-03-30T15:52:13.892Z,10.95
2019-03-30T15:54:37.914Z,12.75
2019-03-30T15:57:14.340Z,11.55
2019-03-30T15:59:41.462Z,10.85
2019-03-30T16:02:12.308Z,12.30
2019-03-30T16:04:44.174Z,13.78
2019-03-30T16:07:15.209Z,11.83
2019-03-30T16:09:46.149Z,12.43
2019-03-30T16:12:17.079Z,12.05
2019-03-30T16:14:47.970Z,10.45
2019-03-30T16:17:19.113Z,11.90
2019-03-30T16:19:49.983Z,12.95
2019-03-30T16:22:20.945Z,13.48
2019-03-30T16:24:51.776Z,16.52
2019-03-30T16:27:29.062Z,12.23
2019-03-30T16:29:58.474Z,12.82
2019-03-30T16:32:27.721Z,14.63
2019-03-30T16:34:58.587Z,11.57
2019-03-30T16:37:29.489Z,12.35
2019-03-30T16:40:00.508Z,14.30
2019-03-30T16:42:31.386Z,10.65
2019-03-30T16:45:03.214Z,24.23
2019-03-30T16:47:34.294Z,9.70
2019-03-30T16:50:05.721Z,11.50
2019-03-30T16:52:36.704Z,11.12
2019-03-30T16:55:07.607Z,10.85
2019-03-30T16:57:43.583Z,12.68
2019-03-30T17:00:11.480Z,12.03
2019-03-30T17:02:42.402Z,11.85
2019-03-30T17:05:13.469Z,11.70
2019-03-30T17:07:45.346Z,11.55
2019-03-30T17:10:16.246Z,12.15
2019-03-30T17:12:47.250Z,11.85
2019-03-30T17:15:20.404Z,12.78
2019-03-30T17:17:51.348Z,12.93
2019-03-30T17:20:22.230Z,13.43
2019-03-30T17:22:53.228Z,11.20
2019-03-30T17:25:24.174Z,11.30
2019-03-30T17:27:58.481Z,11.73
2019-03-30T17:30:27.720Z,23.40
2019-03-30T17:32:58.681Z,10.93
2019-03-30T17:35:29.537Z,12.73
2019-03-30T17:38:00.425Z,12.90
2019-03-30T17:40:31.368Z,11.12
2019-03-30T17:43:02.309Z,10.08
2019-03-30T17:45:33.214Z,10.82
2019-03-30T17:48:04.133Z,13.40
2019-03-30T17:50:35.982Z,14.60
2019-03-30T17:53:06.880Z,18.92
2019-03-30T17:55:37.749Z,16.32
2019-03-30T17:58:13.331Z,13.90
2019-03-30T18:00:41.167Z,13.53
2019-03-30T18:03:12.061Z,14.93
2019-03-30T18:05:42.940Z,19.50
2019-03-30T18:08:13.943Z,15.98
2019-03-30T18:10:44.908Z,22.02
2019-03-30T18:13:15.832Z,19.80
2019-03-30T18:15:46.716Z,19.05
2019-03-30T18:18:17.723Z,13.55
2019-03-30T18:20:48.594Z,15.08
2019-03-30T18:23:19.527Z,14.28
2019-03-30T18:25:50.483Z,16.73
2019-03-30T18:28:27.375Z,19.42
2019-03-30T18:30:55.043Z,22.80
2019-03-30T18:33:26.554Z,16.15
2019-03-30T18:35:57.710Z,17.00
2019-03-30T18:38:28.956Z,13.38
2019-03-30T18:40:59.820Z,13.75
2019-03-30T18:43:31.287Z,14.43
2019-03-30T18:46:02.119Z,17.87
2019-03-30T18:48:33.033Z,15.75
2019-03-30T18:51:03.912Z,15.13
2019-03-30T18:53:35.490Z,18.32
2019-03-30T18:56:06.373Z,17.67
2019-03-30T18:58:41.948Z,17.40
2019-03-30T19:01:10.217Z,14.45
2019-03-30T19:03:41.614Z,12.10
2019-03-30T19:06:12.699Z,12.73
2019-03-30T19:08:43.901Z,14.28
2019-03-30T19:11:15.044Z,13.05
2019-03-30T19:13:46.192Z,12.98
2019-03-30T19:16:17.391Z,14.90
2019-03-30T19:18:48.518Z,16.25
2019-03-30T19:21:19.716Z,10.65
2019-03-30T19:23:50.912Z,13.35
2019-03-30T19:26:22.331Z,11.95
2019-03-30T19:28:56.555Z,12.23
2019-03-30T19:31:25.920Z,15.98
2019-03-30T19:33:56.859Z,14.50
2019-03-30T19:36:27.805Z,15.23
2019-03-30T19:38:58.736Z,12.60
2019-03-30T19:41:29.661Z,17.55
2019-03-30T19:44:00.677Z,22.85
2019-03-30T19:46:31.633Z,20.08
2019-03-30T19:49:02.557Z,19.27
2019-03-30T19:51:33.522Z,18.98
2019-03-30T19:54:04.406Z,15.63
2019-03-30T19:56:35.378Z,17.40
2019-03-30T19:59:11.125Z,29.90
2019-03-30T20:01:39.246Z,17.67
2019-03-30T20:04:10.233Z,14.90
2019-03-30T20:06:41.395Z,15.93
2019-03-30T20:09:12.386Z,19.37
2019-03-30T20:11:43.924Z,15.48
2019-03-30T20:14:18.930Z,16.37
2019-03-30T20:16:49.865Z,19.00
2019-03-30T20:19:20.832Z,19.40
2019-03-30T20:21:51.775Z,20.02
2019-03-30T20:24:22.671Z,19.25
2019-03-30T20:26:53.572Z,16.62
2019-03-30T20:29:25.794Z,20.82
2019-03-30T20:31:56.901Z,18.15
2019-03-30T20:34:27.864Z,18.90
2019-03-30T20:36:58.792Z,17.10
2019-03-30T20:39:29.768Z,21.35
2019-03-30T20:42:00.792Z,19.15
2019-03-30T20:44:31.701Z,20.68
2019-03-30T20:47:02.559Z,23.57
2019-03-30T20:49:33.576Z,24.55
2019-03-30T20:52:04.496Z,26.68
2019-03-30T20:54:35.410Z,29.65
2019-03-30T20:57:06.266Z,32.10
2019-03-30T20:59:40.193Z,36.38
2019-03-30T21:02:09.682Z,29.98
2019-03-30T21:04:40.594Z,28.55
2019-03-30T21:07:11.480Z,33.18
2019-03-30T21:09:42.409Z,25.05
2019-03-30T21:12:13.292Z,27.22
2019-03-30T21:14:44.191Z,17.55
2019-03-30T21:17:15.062Z,28.52
2019-03-30T21:19:45.993Z,22.65
2019-03-30T21:22:16.841Z,26.40
2019-03-30T21:24:47.784Z,24.85
2019-03-30T21:27:18.648Z,19.52
2019-03-30T21:29:54.806Z,22.17
2019-03-30T21:32:22.015Z,20.45
2019-03-30T21:34:52.914Z,22.45
2019-03-30T21:37:23.790Z,24.15
2019-03-30T21:39:54.666Z,24.60
2019-03-30T21:42:25.586Z,24.80
2019-03-30T21:44:56.496Z,25.27
2019-03-30T21:47:27.344Z,22.98
2019-03-30T21:49:58.292Z,21.90
2019-03-30T21:52:29.266Z,24.00
2019-03-30T21:55:00.381Z,20.20
2019-03-30T21:57:31.225Z,19.80
2019-03-30T22:00:09.969Z,19.82
2019-03-30T22:02:35.288Z,23.22
2019-03-30T22:05:06.655Z,26.37
2019-03-30T22:07:38.530Z,24.63
2019-03-30T22:10:09.671Z,21.10
2019-03-30T22:12:43.614Z,21.00
2019-03-30T22:15:17.893Z,27.30
2019-03-30T22:17:49.143Z,28.70
2019-03-30T22:20:21.415Z,24.25
2019-03-30T22:22:52.397Z,34.25
2019-03-30T22:25:23.288Z,25.75
2019-03-30T22:27:54.176Z,25.05
2019-03-30T22:30:25.545Z,30.32
2019-03-30T22:32:56.431Z,30.43
2019-03-30T22:35:27.321Z,24.55
2019-03-30T22:37:58.222Z,22.17
2019-03-30T22:40:29.156Z,25.50
2019-03-30T22:43:00.038Z,21.33
2019-03-30T22:45:30.945Z,16.85
2019-03-30T22:48:02.759Z,23.35
2019-03-30T22:50:33.740Z,21.77
2019-03-30T22:53:04.599Z,25.97
2019-03-30T22:55:35.490Z,25.70
2019-03-30T22:58:06.356Z,27.17
2019-03-30T23:00:54.967Z,30.27
2019-03-30T23:03:26.123Z,22.02
2019-03-30T23:05:57.096Z,28.02
2019-03-30T23:08:28.038Z,22.42
2019-03-30T23:10:58.935Z,26.02
2019-03-30T23:13:29.780Z,27.40
2019-03-30T23:16:01.086Z,25.95
2019-03-30T23:18:31.941Z,23.98
2019-03-30T23:21:02.836Z,29.23
2019-03-30T23:23:33.688Z,31.87
2019-03-30T23:26:04.648Z,32.28
2019-03-30T23:28:35.498Z,28.85
2019-03-30T23:31:06.466Z,28.52
2019-03-30T23:33:37.384Z,23.73
2019-03-30T23:36:08.273Z,25.02
2019-03-30T23:38:39.183Z,21.77
2019-03-30T23:41:10.075Z,22.35
2019-03-30T23:43:40.956Z,21.00
2019-03-30T23:46:11.884Z,32.75
2019-03-30T23:48:42.743Z,18.62
2019-03-30T23:51:13.671Z,25.97
2019-03-30T23:53:44.532Z,21.50
2019-03-30T23:56:26.353Z,27.25
2019-03-30T23:58:57.210Z,27.20
